Impacts METAR Board
IDs:

KJFK - New York/Kennedy Int, NY, US

Updated at: 1500 UTC 23 May 2018
Potential Impact None Slight Moderate High
Time 23/03Z 23/04Z 23/05Z 23/06Z 23/07Z 23/08Z 23/09Z 23/10Z 23/11Z 23/12Z 23/13Z 23/14Z 23/15Z
Temp57 58 58 58 58 58 58 59 59 61 63 65 69
Dewpt57 57 57 58 57 58 58 58 59 61 62 63 64
Altim30.00 29.97 29.95 29.94 29.94 29.92 29.90 29.91 29.91 29.93 29.94 29.94 29.94
VIS10 10 10 10 10 6 4 7 5 4 5 5 7
CIG8 8 9 7 7 7 4 5 100 60 130 35 --
CoverOVCOVCOVCOVCOVCOVCOVCOVCBKNBKNBKNBKNSCT
FltCatIFRIFRIFRIFRIFRIFRLIFRIFRMVFRMVFRMVFRMVFRVFR
WX----------VCTS RA BRTSRA BR-RABRBRBRBR--
WDir0000230180200022022021000
WSpd0 0 0 0 5 8 7 0 5 6 4 4 4
WGst-- -- -- -- -- -- -- -- -- -- -- -- --
Raw hourly METARs
KJFK 230251Z 00000KT 10SM OVC008 14/14 A3000 RMK AO2 SLP159 60001 T01390139 58007
KJFK 230351Z 00000KT 10SM OVC008 14/14 A2997 RMK AO2 SLP148 T01440139
KJFK 230451Z 00000KT 10SM OVC009 14/14 A2995 RMK AO2 SLP143 T01440139 401830133
KJFK 230551Z 00000KT 10SM BKN007 OVC014 14/14 A2994 RMK AO2 SLP139 60001 T01440144 10144 20139 56019
KJFK 230651Z 23005KT 10SM BKN007 OVC014 14/14 A2994 RMK AO2 SLP137 T01440139
KJFK 230805Z 18008KT 6SM VCTS RA BR BKN007 BKN050 OVC090 14/14 A2992 RMK AO2 TSE0759 OCNL LTGIC DSNT SW CB DSNT SW MOV SE P0003 T01440144
KJFK 230851Z 20007KT 4SM TSRA BR BKN004 BKN038CB OVC100 14/14 A2990 RMK AO2 LTG DSNT SE TSE0759B16 SLP126 OCNL LTGIC OHD-SE TS OHD-SE MOV SE P0017 60017 T01440144 58014
KJFK 231002Z 00000KT 7SM -RA OVC005 15/14 A2991 RMK AO2 RAB0956 P0000 T01500144
KJFK 231051Z 22005KT 5SM BR SCT006 BKN100 BKN250 15/15 A2991 RMK AO2 RAB0956E18 SLP129 P0000 T01500150
KJFK 231151Z 22006KT 4SM BR SCT006 BKN060 BKN100 BKN250 16/16 A2993 RMK AO2 SLP133 VIS SE-S 2 1/2 SCT V BKN 60020 70037 T01610161 10161 20139 53008
KJFK 231251Z 21004KT 5SM BR FEW006 SCT060 BKN130 BKN250 17/17 A2994 RMK AO2 SLP137 VIS SE-S 2 1/2 T01720167
KJFK 231351Z VRB04KT 5SM BR FEW005 FEW020 BKN035 BKN130 18/17 A2994 RMK AO2 SLP137 VIS SE 2 1/2 T01830172
KJFK 231451Z VRB04KT 7SM SCT025 SCT060 21/18 A2994 RMK AO2 SLP138 T02060178 51005



Page loaded:  15:02 UTC  |   08:02 AM Pacific  |   09:02 AM Mountain  |   10:02 AM Central  |   11:02 AM Eastern

 

ADVISORIES

FORECASTS

FORECASTS

OBSERVATIONS

USER TOOLS

ABOUT US